sensor_id;sensor_type;location;lat;lon;timestamp;pressure;altitude;pressure_sealevel;temperature;humidity
12991;BME280;6560;57.692;11.958;2023-03-12T00:00:30;99857.16;;;12.30;100.00
12991;BME280;6560;57.692;11.958;2023-03-12T00:02:56;99856.75;;;11.75;100.00
12991;BME280;6560;57.692;11.958;2023-03-12T00:05:22;99865.78;;;11.95;100.00
12991;BME280;6560;57.692;11.958;2023-03-12T00:07:50;99866.06;;;12.16;100.00
12991;BME280;6560;57.692;11.958;2023-03-12T00:10:17;99864.34;;;12.16;100.00
12991;BME280;6560;57.692;11.958;2023-03-12T00:12:42;99859.47;;;12.24;100.00
12991;BME280;6560;57.692;11.958;2023-03-12T00:15:08;99863.34;;;11.98;100.00
12991;BME280;6560;57.692;11.958;2023-03-12T00:17:34;99817.34;;;11.78;100.00
12991;BME280;6560;57.692;11.958;2023-03-12T00:19:59;99867.03;;;11.40;100.00
12991;BME280;6560;57.692;11.958;2023-03-12T00:22:25;99878.41;;;11.39;100.00
12991;BME280;6560;57.692;11.958;2023-03-12T00:24:51;99853.84;;;11.40;100.00
12991;BME280;6560;57.692;11.958;2023-03-12T00:27:18;99890.47;;;11.95;100.00
12991;BME280;6560;57.692;11.958;2023-03-12T00:29:44;99879.78;;;11.78;100.00
12991;BME280;6560;57.692;11.958;2023-03-12T00:32:09;99877.53;;;12.00;100.00
12991;BME280;6560;57.692;11.958;2023-03-12T00:34:35;99887.38;;;12.35;100.00
12991;BME280;6560;57.692;11.958;2023-03-12T00:37:00;99845.84;;;12.00;100.00
12991;BME280;6560;57.692;11.958;2023-03-12T00:39:26;99884.94;;;11.75;100.00
12991;BME280;6560;57.692;11.958;2023-03-12T00:41:51;99897.09;;;11.73;100.00
12991;BME280;6560;57.692;11.958;2023-03-12T00:44:17;99842.84;;;9.88;100.00
12991;BME280;6560;57.692;11.958;2023-03-12T00:46:42;99902.63;;;9.76;100.00
12991;BME280;6560;57.692;11.958;2023-03-12T00:49:08;99797.38;;;11.22;100.00
12991;BME280;6560;57.692;11.958;2023-03-12T00:51:34;99889.53;;;11.64;100.00
12991;BME280;6560;57.692;11.958;2023-03-12T00:54:00;99891.47;;;11.67;100.00
12991;BME280;6560;57.692;11.958;2023-03-12T00:56:25;99859.88;;;11.08;100.00
12991;BME280;6560;57.692;11.958;2023-03-12T00:58:51;99901.38;;;11.56;100.00
12991;BME280;6560;57.692;11.958;2023-03-12T01:01:16;99913.72;;;10.82;100.00
12991;BME280;6560;57.692;11.958;2023-03-12T01:03:42;99914.44;;;10.79;100.00
12991;BME280;6560;57.692;11.958;2023-03-12T01:06:08;99847.16;;;10.86;100.00
12991;BME280;6560;57.692;11.958;2023-03-12T01:08:33;99887.63;;;10.87;100.00
12991;BME280;6560;57.692;11.958;2023-03-12T01:10:59;99909.63;;;11.16;100.00
12991;BME280;6560;57.692;11.958;2023-03-12T01:13:25;99917.66;;;11.64;100.00
12991;BME280;6560;57.692;11.958;2023-03-12T01:15:50;99918.00;;;11.39;100.00
12991;BME280;6560;57.692;11.958;2023-03-12T01:18:16;99937.72;;;11.16;100.00
12991;BME280;6560;57.692;11.958;2023-03-12T01:20:41;99940.03;;;10.95;100.00
12991;BME280;6560;57.692;11.958;2023-03-12T01:23:07;99900.34;;;10.94;100.00
12991;BME280;6560;57.692;11.958;2023-03-12T01:25:33;99931.91;;;11.51;100.00
12991;BME280;6560;57.692;11.958;2023-03-12T01:27:59;99949.31;;;11.33;100.00
12991;BME280;6560;57.692;11.958;2023-03-12T01:30:24;99944.91;;;11.04;100.00
12991;BME280;6560;57.692;11.958;2023-03-12T01:32:50;99950.94;;;11.31;100.00
12991;BME280;6560;57.692;11.958;2023-03-12T01:35:16;99956.47;;;11.65;100.00
12991;BME280;6560;57.692;11.958;2023-03-12T01:37:42;99952.06;;;12.25;100.00
12991;BME280;6560;57.692;11.958;2023-03-12T01:40:21;99901.41;;;9.84;100.00
12991;BME280;6560;57.692;11.958;2023-03-12T01:42:54;99913.16;;;10.73;100.00
12991;BME280;6560;57.692;11.958;2023-03-12T01:48:22;99965.09;;;10.89;100.00
12991;BME280;6560;57.692;11.958;2023-03-12T01:50:48;99930.59;;;10.71;100.00
12991;BME280;6560;57.692;11.958;2023-03-12T01:53:14;99997.41;;;10.44;100.00
12991;BME280;6560;57.692;11.958;2023-03-12T01:55:39;99993.78;;;10.69;100.00
12991;BME280;6560;57.692;11.958;2023-03-12T01:58:06;99940.16;;;10.41;100.00
12991;BME280;6560;57.692;11.958;2023-03-12T02:00:32;99985.72;;;10.53;100.00
12991;BME280;6560;57.692;11.958;2023-03-12T02:03:00;99997.63;;;10.74;100.00
12991;BME280;6560;57.692;11.958;2023-03-12T02:05:45;100000.81;;;11.41;100.00
12991;BME280;6560;57.692;11.958;2023-03-12T02:08:13;100003.44;;;11.41;100.00
12991;BME280;6560;57.692;11.958;2023-03-12T02:10:40;99939.03;;;10.37;100.00
12991;BME280;6560;57.692;11.958;2023-03-12T02:13:05;100010.81;;;10.74;100.00
12991;BME280;6560;57.692;11.958;2023-03-12T02:15:33;100014.28;;;10.88;100.00
12991;BME280;6560;57.692;11.958;2023-03-12T02:18:02;99945.78;;;10.06;100.00
12991;BME280;6560;57.692;11.958;2023-03-12T02:23:09;99978.78;;;10.41;100.00
12991;BME280;6560;57.692;11.958;2023-03-12T02:25:41;100029.25;;;10.07;100.00
12991;BME280;6560;57.692;11.958;2023-03-12T02:28:11;100023.75;;;10.44;100.00
12991;BME280;6560;57.692;11.958;2023-03-12T02:30:39;100030.16;;;10.75;100.00
12991;BME280;6560;57.692;11.958;2023-03-12T02:33:09;100026.50;;;11.01;100.00
12991;BME280;6560;57.692;11.958;2023-03-12T02:35:35;100027.53;;;11.75;100.00
12991;BME280;6560;57.692;11.958;2023-03-12T02:38:01;100034.56;;;11.46;100.00
12991;BME280;6560;57.692;11.958;2023-03-12T02:40:34;100026.44;;;10.58;100.00
12991;BME280;6560;57.692;11.958;2023-03-12T02:43:04;100036.63;;;11.08;100.00
12991;BME280;6560;57.692;11.958;2023-03-12T02:45:30;100050.09;;;10.85;100.00
12991;BME280;6560;57.692;11.958;2023-03-12T02:47:56;100029.56;;;11.22;100.00
12991;BME280;6560;57.692;11.958;2023-03-12T02:50:22;99977.22;;;10.72;100.00
12991;BME280;6560;57.692;11.958;2023-03-12T02:52:47;99942.25;;;10.19;100.00
12991;BME280;6560;57.692;11.958;2023-03-12T02:55:13;100049.53;;;11.18;100.00
12991;BME280;6560;57.692;11.958;2023-03-12T02:57:38;99988.75;;;9.39;100.00
12991;BME280;6560;57.692;11.958;2023-03-12T03:00:06;99969.94;;;9.59;100.00
12991;BME280;6560;57.692;11.958;2023-03-12T03:02:36;100050.06;;;10.57;100.00
12991;BME280;6560;57.692;11.958;2023-03-12T03:05:01;100058.78;;;10.69;100.00
12991;BME280;6560;57.692;11.958;2023-03-12T03:07:27;100062.50;;;10.72;100.00
12991;BME280;6560;57.692;11.958;2023-03-12T03:09:52;100054.03;;;10.91;100.00
12991;BME280;6560;57.692;11.958;2023-03-12T03:12:18;100049.22;;;10.71;100.00
12991;BME280;6560;57.692;11.958;2023-03-12T03:14:43;100083.06;;;9.84;100.00
12991;BME280;6560;57.692;11.958;2023-03-12T03:17:09;100086.84;;;9.63;100.00
12991;BME280;6560;57.692;11.958;2023-03-12T03:19:34;100063.56;;;10.61;100.00
12991;BME280;6560;57.692;11.958;2023-03-12T03:22:00;100082.50;;;10.69;100.00
12991;BME280;6560;57.692;11.958;2023-03-12T03:24:25;100088.63;;;10.55;100.00
12991;BME280;6560;57.692;11.958;2023-03-12T03:26:51;100098.25;;;10.15;100.00
12991;BME280;6560;57.692;11.958;2023-03-12T03:29:16;100099.19;;;10.42;100.00
12991;BME280;6560;57.692;11.958;2023-03-12T03:31:42;100105.34;;;10.55;100.00
12991;BME280;6560;57.692;11.958;2023-03-12T03:34:08;100076.50;;;10.30;100.00
12991;BME280;6560;57.692;11.958;2023-03-12T03:36:33;100115.69;;;10.52;100.00
12991;BME280;6560;57.692;11.958;2023-03-12T03:38:58;100116.59;;;10.39;100.00
12991;BME280;6560;57.692;11.958;2023-03-12T03:41:24;100032.56;;;10.44;100.00
12991;BME280;6560;57.692;11.958;2023-03-12T03:43:50;100089.50;;;10.68;100.00
12991;BME280;6560;57.692;11.958;2023-03-12T03:46:15;100128.50;;;10.87;100.00
12991;BME280;6560;57.692;11.958;2023-03-12T03:48:41;100116.06;;;10.58;100.00
12991;BME280;6560;57.692;11.958;2023-03-12T03:51:08;100134.25;;;10.41;100.00
12991;BME280;6560;57.692;11.958;2023-03-12T03:53:34;100135.09;;;10.81;100.00
12991;BME280;6560;57.692;11.958;2023-03-12T03:56:07;100123.06;;;10.58;100.00
12991;BME280;6560;57.692;11.958;2023-03-12T03:58:34;100133.41;;;10.15;100.00
12991;BME280;6560;57.692;11.958;2023-03-12T04:00:59;100133.28;;;10.79;100.00
12991;BME280;6560;57.692;11.958;2023-03-12T04:03:25;100135.03;;;9.62;100.00
12991;BME280;6560;57.692;11.958;2023-03-12T04:06:09;100129.03;;;10.16;100.00
12991;BME280;6560;57.692;11.958;2023-03-12T04:08:36;100142.72;;;10.10;100.00
12991;BME280;6560;57.692;11.958;2023-03-12T04:11:09;100138.72;;;10.28;100.00
12991;BME280;6560;57.692;11.958;2023-03-12T04:13:36;100143.94;;;10.15;100.00
12991;BME280;6560;57.692;11.958;2023-03-12T04:16:02;100148.97;;;10.91;100.00
12991;BME280;6560;57.692;11.958;2023-03-12T04:18:27;100150.66;;;10.50;100.00
12991;BME280;6560;57.692;11.958;2023-03-12T04:20:53;100163.50;;;10.19;100.00
12991;BME280;6560;57.692;11.958;2023-03-12T04:23:18;100140.44;;;10.41;100.00
12991;BME280;6560;57.692;11.958;2023-03-12T04:25:44;100167.03;;;10.85;98.69
12991;BME280;6560;57.692;11.958;2023-03-12T04:28:09;100151.03;;;11.10;98.94
12991;BME280;6560;57.692;11.958;2023-03-12T04:30:35;100164.72;;;10.50;100.00
12991;BME280;6560;57.692;11.958;2023-03-12T04:33:03;100160.97;;;10.20;100.00
12991;BME280;6560;57.692;11.958;2023-03-12T04:35:29;100165.91;;;9.40;100.00
12991;BME280;6560;57.692;11.958;2023-03-12T04:37:55;100167.13;;;9.32;100.00
12991;BME280;6560;57.692;11.958;2023-03-12T04:40:20;100148.97;;;9.99;100.00
12991;BME280;6560;57.692;11.958;2023-03-12T04:42:46;100185.59;;;9.08;100.00
12991;BME280;6560;57.692;11.958;2023-03-12T04:45:12;100107.13;;;9.39;100.00
12991;BME280;6560;57.692;11.958;2023-03-12T04:47:38;100144.34;;;10.08;100.00
12991;BME280;6560;57.692;11.958;2023-03-12T04:50:04;100179.97;;;9.90;100.00
12991;BME280;6560;57.692;11.958;2023-03-12T04:52:29;100183.41;;;9.89;100.00
12991;BME280;6560;57.692;11.958;2023-03-12T04:54:55;100181.53;;;9.75;100.00
12991;BME280;6560;57.692;11.958;2023-03-12T04:57:27;100143.03;;;9.64;100.00
12991;BME280;6560;57.692;11.958;2023-03-12T04:59:53;100180.22;;;10.19;100.00
12991;BME280;6560;57.692;11.958;2023-03-12T05:02:18;100173.94;;;10.70;100.00
12991;BME280;6560;57.692;11.958;2023-03-12T05:04:43;100190.88;;;10.73;100.00
12991;BME280;6560;57.692;11.958;2023-03-12T05:07:09;100150.06;;;11.08;100.00
12991;BME280;6560;57.692;11.958;2023-03-12T05:09:34;100187.81;;;11.35;100.00
12991;BME280;6560;57.692;11.958;2023-03-12T05:12:00;100185.19;;;10.94;100.00
12991;BME280;6560;57.692;11.958;2023-03-12T05:14:26;100180.53;;;10.50;100.00
12991;BME280;6560;57.692;11.958;2023-03-12T05:16:51;100180.13;;;10.44;100.00
12991;BME280;6560;57.692;11.958;2023-03-12T05:19:17;100111.66;;;9.67;100.00
12991;BME280;6560;57.692;11.958;2023-03-12T05:21:42;100202.13;;;9.55;100.00
12991;BME280;6560;57.692;11.958;2023-03-12T05:24:09;100210.38;;;10.11;100.00
12991;BME280;6560;57.692;11.958;2023-03-12T05:26:34;100200.16;;;10.16;100.00
12991;BME280;6560;57.692;11.958;2023-03-12T05:29:00;100205.50;;;10.42;100.00
12991;BME280;6560;57.692;11.958;2023-03-12T05:31:27;100214.31;;;10.29;100.00
12991;BME280;6560;57.692;11.958;2023-03-12T05:33:52;100208.22;;;10.06;100.00
12991;BME280;6560;57.692;11.958;2023-03-12T05:36:19;100227.38;;;10.03;100.00
12991;BME280;6560;57.692;11.958;2023-03-12T05:38:44;100232.59;;;9.65;100.00
12991;BME280;6560;57.692;11.958;2023-03-12T05:41:25;100235.59;;;10.59;100.00
12991;BME280;6560;57.692;11.958;2023-03-12T05:43:52;100233.22;;;9.99;100.00
12991;BME280;6560;57.692;11.958;2023-03-12T05:46:18;100209.28;;;9.33;100.00
12991;BME280;6560;57.692;11.958;2023-03-12T05:48:44;100234.50;;;10.55;100.00
12991;BME280;6560;57.692;11.958;2023-03-12T05:51:09;100236.28;;;10.30;100.00
12991;BME280;6560;57.692;11.958;2023-03-12T05:53:35;100214.59;;;9.96;100.00
12991;BME280;6560;57.692;11.958;2023-03-12T05:56:06;100240.06;;;10.60;100.00
12991;BME280;6560;57.692;11.958;2023-03-12T05:58:33;100240.22;;;9.98;100.00
12991;BME280;6560;57.692;11.958;2023-03-12T06:00:59;100248.16;;;10.12;100.00
12991;BME280;6560;57.692;11.958;2023-03-12T06:03:25;100236.31;;;10.56;100.00
12991;BME280;6560;57.692;11.958;2023-03-12T06:05:51;100210.44;;;10.37;100.00
12991;BME280;6560;57.692;11.958;2023-03-12T06:08:20;100242.72;;;9.84;100.00
12991;BME280;6560;57.692;11.958;2023-03-12T06:10:46;100245.59;;;10.00;100.00
12991;BME280;6560;57.692;11.958;2023-03-12T06:13:11;100237.94;;;9.17;100.00
12991;BME280;6560;57.692;11.958;2023-03-12T06:15:37;100238.91;;;10.17;100.00
12991;BME280;6560;57.692;11.958;2023-03-12T06:18:02;100217.75;;;10.42;100.00
12991;BME280;6560;57.692;11.958;2023-03-12T06:20:28;100238.53;;;10.63;98.60
12991;BME280;6560;57.692;11.958;2023-03-12T06:22:54;100239.25;;;10.61;100.00
12991;BME280;6560;57.692;11.958;2023-03-12T06:25:19;100244.25;;;10.18;100.00
12991;BME280;6560;57.692;11.958;2023-03-12T06:27:45;100245.06;;;9.92;100.00
12991;BME280;6560;57.692;11.958;2023-03-12T06:30:11;100252.13;;;10.43;100.00
12991;BME280;6560;57.692;11.958;2023-03-12T06:32:36;100203.69;;;10.03;100.00
12991;BME280;6560;57.692;11.958;2023-03-12T06:35:02;100253.25;;;10.86;100.00
12991;BME280;6560;57.692;11.958;2023-03-12T06:37:29;100251.09;;;10.41;100.00
12991;BME280;6560;57.692;11.958;2023-03-12T06:39:55;100266.94;;;10.16;100.00
12991;BME280;6560;57.692;11.958;2023-03-12T06:42:20;100270.34;;;10.02;100.00
12991;BME280;6560;57.692;11.958;2023-03-12T06:44:47;100226.97;;;10.22;100.00
12991;BME280;6560;57.692;11.958;2023-03-12T06:47:13;100162.56;;;10.84;100.00
12991;BME280;6560;57.692;11.958;2023-03-12T06:49:38;100249.00;;;10.62;100.00
12991;BME280;6560;57.692;11.958;2023-03-12T06:52:04;100255.06;;;10.61;100.00
12991;BME280;6560;57.692;11.958;2023-03-12T06:54:30;100269.69;;;10.18;100.00
12991;BME280;6560;57.692;11.958;2023-03-12T06:56:56;100241.41;;;10.15;100.00
12991;BME280;6560;57.692;11.958;2023-03-12T06:59:24;100232.16;;;9.71;100.00
12991;BME280;6560;57.692;11.958;2023-03-12T07:01:49;100221.59;;;10.33;100.00
12991;BME280;6560;57.692;11.958;2023-03-12T07:04:15;100241.25;;;10.38;100.00
12991;BME280;6560;57.692;11.958;2023-03-12T07:06:41;100222.22;;;10.69;100.00
12991;BME280;6560;57.692;11.958;2023-03-12T07:09:06;100281.41;;;10.48;100.00
12991;BME280;6560;57.692;11.958;2023-03-12T07:11:32;100274.97;;;10.95;100.00
12991;BME280;6560;57.692;11.958;2023-03-12T07:13:57;100279.00;;;10.77;100.00
12991;BME280;6560;57.692;11.958;2023-03-12T07:16:23;100270.66;;;10.45;100.00
12991;BME280;6560;57.692;11.958;2023-03-12T07:18:48;100250.00;;;10.77;100.00
12991;BME280;6560;57.692;11.958;2023-03-12T07:21:14;100284.22;;;10.37;100.00
12991;BME280;6560;57.692;11.958;2023-03-12T07:23:47;100260.31;;;11.27;100.00
12991;BME280;6560;57.692;11.958;2023-03-12T07:26:13;100287.50;;;11.12;100.00
12991;BME280;6560;57.692;11.958;2023-03-12T07:28:39;100278.88;;;11.28;100.00
12991;BME280;6560;57.692;11.958;2023-03-12T07:31:05;100247.66;;;10.95;100.00
12991;BME280;6560;57.692;11.958;2023-03-12T07:33:30;100183.59;;;10.69;100.00
12991;BME280;6560;57.692;11.958;2023-03-12T07:35:56;100247.50;;;11.33;100.00
12991;BME280;6560;57.692;11.958;2023-03-12T07:38:22;100287.16;;;11.47;100.00
12991;BME280;6560;57.692;11.958;2023-03-12T07:40:52;100278.09;;;11.57;100.00
12991;BME280;6560;57.692;11.958;2023-03-12T07:43:18;100290.13;;;12.22;100.00
12991;BME280;6560;57.692;11.958;2023-03-12T07:45:43;100290.63;;;12.74;100.00
12991;BME280;6560;57.692;11.958;2023-03-12T07:48:09;100291.38;;;12.00;100.00
12991;BME280;6560;57.692;11.958;2023-03-12T07:50:35;100289.88;;;10.82;98.54
12991;BME280;6560;57.692;11.958;2023-03-12T07:53:01;100257.22;;;11.47;100.00
12991;BME280;6560;57.692;11.958;2023-03-12T07:55:28;100288.38;;;12.08;100.00
12991;BME280;6560;57.692;11.958;2023-03-12T07:57:54;100267.50;;;11.98;100.00
12991;BME280;6560;57.692;11.958;2023-03-12T08:00:22;100287.41;;;11.78;100.00
12991;BME280;6560;57.692;11.958;2023-03-12T08:02:48;100297.97;;;11.65;100.00
12991;BME280;6560;57.692;11.958;2023-03-12T08:05:14;100301.34;;;11.49;100.00
12991;BME280;6560;57.692;11.958;2023-03-12T08:07:40;100297.16;;;11.79;100.00
12991;BME280;6560;57.692;11.958;2023-03-12T08:10:07;100281.69;;;11.85;100.00
12991;BME280;6560;57.692;11.958;2023-03-12T08:12:32;100294.03;;;11.58;100.00
12991;BME280;6560;57.692;11.958;2023-03-12T08:14:58;100304.94;;;11.24;100.00
12991;BME280;6560;57.692;11.958;2023-03-12T08:17:24;100261.44;;;12.14;100.00
12991;BME280;6560;57.692;11.958;2023-03-12T08:19:50;100301.84;;;12.70;100.00
12991;BME280;6560;57.692;11.958;2023-03-12T08:22:16;100286.25;;;12.89;100.00
12991;BME280;6560;57.692;11.958;2023-03-12T08:24:42;100303.28;;;12.94;100.00
12991;BME280;6560;57.692;11.958;2023-03-12T08:27:08;100232.44;;;12.15;100.00
12991;BME280;6560;57.692;11.958;2023-03-12T08:29:34;100269.53;;;12.17;100.00
12991;BME280;6560;57.692;11.958;2023-03-12T08:31:59;100225.63;;;12.19;100.00
12991;BME280;6560;57.692;11.958;2023-03-12T08:34:25;100286.38;;;12.04;100.00
12991;BME280;6560;57.692;11.958;2023-03-12T08:36:50;100270.94;;;12.54;100.00
12991;BME280;6560;57.692;11.958;2023-03-12T08:39:16;100287.31;;;12.34;100.00
12991;BME280;6560;57.692;11.958;2023-03-12T08:41:41;100306.31;;;12.27;100.00
12991;BME280;6560;57.692;11.958;2023-03-12T08:44:07;100282.44;;;12.40;100.00
12991;BME280;6560;57.692;11.958;2023-03-12T08:46:32;100307.59;;;12.48;100.00
12991;BME280;6560;57.692;11.958;2023-03-12T08:48:59;100297.22;;;12.66;100.00
12991;BME280;6560;57.692;11.958;2023-03-12T08:51:24;100311.97;;;12.77;100.00
12991;BME280;6560;57.692;11.958;2023-03-12T08:53:50;100250.41;;;12.21;99.63
12991;BME280;6560;57.692;11.958;2023-03-12T08:56:16;100265.38;;;12.50;100.00
12991;BME280;6560;57.692;11.958;2023-03-12T08:58:41;100323.38;;;12.91;100.00
12991;BME280;6560;57.692;11.958;2023-03-12T09:01:09;100314.53;;;12.90;100.00
12991;BME280;6560;57.692;11.958;2023-03-12T09:03:35;100308.59;;;12.65;100.00
12991;BME280;6560;57.692;11.958;2023-03-12T09:06:02;100235.56;;;12.23;100.00
12991;BME280;6560;57.692;11.958;2023-03-12T09:08:28;100289.28;;;12.09;100.00
12991;BME280;6560;57.692;11.958;2023-03-12T09:10:54;100291.25;;;12.41;100.00
12991;BME280;6560;57.692;11.958;2023-03-12T09:13:19;100323.00;;;12.70;100.00
12991;BME280;6560;57.692;11.958;2023-03-12T09:15:44;100311.41;;;12.97;100.00
12991;BME280;6560;57.692;11.958;2023-03-12T09:18:10;100223.81;;;12.18;100.00
12991;BME280;6560;57.692;11.958;2023-03-12T09:20:35;100321.06;;;13.11;100.00
12991;BME280;6560;57.692;11.958;2023-03-12T09:23:01;100320.38;;;12.70;100.00
12991;BME280;6560;57.692;11.958;2023-03-12T09:25:26;100318.16;;;13.52;100.00
12991;BME280;6560;57.692;11.958;2023-03-12T09:27:52;100314.41;;;13.80;100.00
12991;BME280;6560;57.692;11.958;2023-03-12T09:30:19;100322.09;;;12.84;100.00
12991;BME280;6560;57.692;11.958;2023-03-12T09:32:46;100329.47;;;13.04;100.00
12991;BME280;6560;57.692;11.958;2023-03-12T09:35:13;100312.13;;;13.24;100.00
12991;BME280;6560;57.692;11.958;2023-03-12T09:37:39;100224.44;;;13.34;99.26
12991;BME280;6560;57.692;11.958;2023-03-12T09:40:06;100298.88;;;13.55;100.00
12991;BME280;6560;57.692;11.958;2023-03-12T09:42:43;100304.88;;;13.36;100.00
12991;BME280;6560;57.692;11.958;2023-03-12T09:45:17;100291.03;;;13.73;100.00
12991;BME280;6560;57.692;11.958;2023-03-12T09:47:50;100283.56;;;13.49;100.00
12991;BME280;6560;57.692;11.958;2023-03-12T09:53:01;100317.88;;;12.88;100.00
12991;BME280;6560;57.692;11.958;2023-03-12T09:55:32;100318.81;;;12.73;100.00
12991;BME280;6560;57.692;11.958;2023-03-12T09:58:12;100285.59;;;13.86;100.00
12991;BME280;6560;57.692;11.958;2023-03-12T10:00:38;100264.16;;;13.98;100.00
12991;BME280;6560;57.692;11.958;2023-03-12T10:03:45;100241.09;;;13.48;96.86
12991;BME280;6560;57.692;11.958;2023-03-12T10:06:13;100082.94;;;12.50;98.15
12991;BME280;6560;57.692;11.958;2023-03-12T10:08:50;100305.06;;;14.03;100.00
12991;BME280;6560;57.692;11.958;2023-03-12T10:11:52;100298.50;;;14.12;94.60
12991;BME280;6560;57.692;11.958;2023-03-12T10:22:59;100152.88;;;13.33;93.06
12991;BME280;6560;57.692;11.958;2023-03-12T10:28:17;100292.56;;;14.49;100.00
12991;BME280;6560;57.692;11.958;2023-03-12T10:30:57;100300.31;;;14.62;92.36
12991;BME280;6560;57.692;11.958;2023-03-12T10:33:38;100181.34;;;14.19;100.00
12991;BME280;6560;57.692;11.958;2023-03-12T10:38:59;100078.75;;;13.83;98.35
12991;BME280;6560;57.692;11.958;2023-03-12T10:41:28;100324.53;;;14.86;100.00
12991;BME280;6560;57.692;11.958;2023-03-12T10:43:56;100186.88;;;14.40;99.14
12991;BME280;6560;57.692;11.958;2023-03-12T10:52:01;100303.41;;;15.40;95.28
12991;BME280;6560;57.692;11.958;2023-03-12T10:56:55;100324.69;;;14.55;100.00
12991;BME280;6560;57.692;11.958;2023-03-12T10:59:24;100323.63;;;14.85;100.00
12991;BME280;6560;57.692;11.958;2023-03-12T11:01:51;100318.81;;;15.12;100.00
12991;BME280;6560;57.692;11.958;2023-03-12T11:04:21;100300.00;;;14.40;100.00
12991;BME280;6560;57.692;11.958;2023-03-12T11:07:18;100324.00;;;14.59;100.00
12991;BME280;6560;57.692;11.958;2023-03-12T11:09:45;100333.09;;;14.80;99.56
12991;BME280;6560;57.692;11.958;2023-03-12T11:12:28;100349.81;;;14.45;100.00
12991;BME280;6560;57.692;11.958;2023-03-12T11:14:56;100341.09;;;14.15;100.00
12991;BME280;6560;57.692;11.958;2023-03-12T11:17:27;100320.72;;;14.30;100.00
12991;BME280;6560;57.692;11.958;2023-03-12T11:19:53;100329.75;;;14.02;98.40
12991;BME280;6560;57.692;11.958;2023-03-12T11:22:35;100322.44;;;15.14;100.00
12991;BME280;6560;57.692;11.958;2023-03-12T11:25:04;100294.47;;;15.21;100.00
12991;BME280;6560;57.692;11.958;2023-03-12T11:27:37;100321.75;;;14.83;96.51
12991;BME280;6560;57.692;11.958;2023-03-12T11:30:06;100315.97;;;14.91;100.00
12991;BME280;6560;57.692;11.958;2023-03-12T11:32:35;100333.59;;;15.07;100.00
12991;BME280;6560;57.692;11.958;2023-03-12T11:35:02;100309.97;;;14.77;100.00
12991;BME280;6560;57.692;11.958;2023-03-12T11:37:46;100326.13;;;14.82;99.14
12991;BME280;6560;57.692;11.958;2023-03-12T11:45:42;100349.22;;;14.51;97.95
12991;BME280;6560;57.692;11.958;2023-03-12T12:10:23;100282.69;;;16.26;97.92
12991;BME280;6560;57.692;11.958;2023-03-12T12:23:55;100268.75;;;16.32;97.73
12991;BME280;6560;57.692;11.958;2023-03-12T12:32:12;100247.19;;;15.50;97.42
12991;BME280;6560;57.692;11.958;2023-03-12T12:34:58;100268.47;;;15.50;92.97
12991;BME280;6560;57.692;11.958;2023-03-12T12:43:03;100270.06;;;15.65;97.45
12991;BME280;6560;57.692;11.958;2023-03-12T12:45:31;100273.66;;;16.04;97.78
12991;BME280;6560;57.692;11.958;2023-03-12T12:48:15;100267.47;;;15.66;97.51
12991;BME280;6560;57.692;11.958;2023-03-12T12:50:43;100263.84;;;15.83;99.76
12991;BME280;6560;57.692;11.958;2023-03-12T12:53:32;100260.81;;;15.57;99.96
12991;BME280;6560;57.692;11.958;2023-03-12T13:01:54;100240.06;;;15.67;96.44
12991;BME280;6560;57.692;11.958;2023-03-12T13:04:27;100251.59;;;14.95;100.00
12991;BME280;6560;57.692;11.958;2023-03-12T13:09:42;100256.56;;;15.42;98.89
12991;BME280;6560;57.692;11.958;2023-03-12T13:12:17;100259.78;;;15.72;97.31
12991;BME280;6560;57.692;11.958;2023-03-12T13:14:45;100265.28;;;15.94;100.00
12991;BME280;6560;57.692;11.958;2023-03-12T13:17:24;100266.28;;;15.60;98.02
12991;BME280;6560;57.692;11.958;2023-03-12T13:20:00;100227.06;;;15.54;100.00
12991;BME280;6560;57.692;11.958;2023-03-12T13:28:00;100251.25;;;15.42;98.58
12991;BME280;6560;57.692;11.958;2023-03-12T13:30:45;100252.84;;;15.76;94.60
12991;BME280;6560;57.692;11.958;2023-03-12T13:33:16;100240.06;;;16.06;98.20
12991;BME280;6560;57.692;11.958;2023-03-12T13:36:01;100254.91;;;15.81;94.81
12991;BME280;6560;57.692;11.958;2023-03-12T13:38:51;100232.78;;;15.63;100.00
12991;BME280;6560;57.692;11.958;2023-03-12T13:47:03;100273.25;;;15.58;100.00
12991;BME280;6560;57.692;11.958;2023-03-12T13:50:00;100278.97;;;14.77;96.36
12991;BME280;6560;57.692;11.958;2023-03-12T13:52:31;100198.69;;;15.18;100.00
12991;BME280;6560;57.692;11.958;2023-03-12T13:55:06;100258.16;;;15.76;99.36
12991;BME280;6560;57.692;11.958;2023-03-12T14:00:55;100255.38;;;15.73;96.28
12991;BME280;6560;57.692;11.958;2023-03-12T14:03:32;100245.16;;;15.45;100.00
12991;BME280;6560;57.692;11.958;2023-03-12T14:06:15;100274.50;;;15.29;100.00
12991;BME280;6560;57.692;11.958;2023-03-12T14:12:15;100263.78;;;16.20;98.91
12991;BME280;6560;57.692;11.958;2023-03-12T14:17:32;100265.16;;;15.54;100.00
12991;BME280;6560;57.692;11.958;2023-03-12T14:20:09;100256.94;;;15.68;100.00
12991;BME280;6560;57.692;11.958;2023-03-12T14:22:37;100243.13;;;15.95;100.00
12991;BME280;6560;57.692;11.958;2023-03-12T14:25:15;100178.41;;;15.55;100.00
12991;BME280;6560;57.692;11.958;2023-03-12T14:27:44;100094.53;;;15.42;100.00
12991;BME280;6560;57.692;11.958;2023-03-12T14:32:41;100116.38;;;15.37;97.84
12991;BME280;6560;57.692;11.958;2023-03-12T14:35:28;100226.53;;;16.81;93.96
12991;BME280;6560;57.692;11.958;2023-03-12T14:38:06;100231.91;;;16.60;96.06
12991;BME280;6560;57.692;11.958;2023-03-12T14:40:46;100237.59;;;16.69;92.61
12991;BME280;6560;57.692;11.958;2023-03-12T14:43:25;100234.75;;;16.46;95.25